EDT,Max TemperatureF,Mean TemperatureF,Min TemperatureF,Max Dew PointF,MeanDew PointF,Min DewpointF,Max Humidity, Mean Humidity, Min Humidity, Max Sea Level PressureIn, Mean Sea Level PressureIn, Min Sea Level PressureIn, Max VisibilityMiles, Mean VisibilityMiles, Min VisibilityMiles, Max Wind SpeedMPH, Mean Wind SpeedMPH, Max Gust SpeedMPH,PrecipitationIn, CloudCover, Events, WindDirDegrees
2013-4-1,42,34,26,28,15,8,70,48,25,30.14,29.97,29.74,10,10,8,25,13,31,T,3,Snow,300
2013-4-2,43,32,21,17,10,6,71,47,22,30.28,30.20,30.14,10,10,10,23,11,29,T,2,,281
2013-4-3,44,33,21,18,10,4,68,44,20,30.43,30.37,30.28,10,10,10,17,7,24,0.00,0,,307
2013-4-4,56,39,21,16,10,2,74,43,11,30.38,30.18,29.97,10,10,10,14,4,18,0.00,0,,207
2013-4-5,52,42,32,31,20,5,76,45,14,30.22,30.09,29.95,10,10,7,17,8,26,0.00,2,,21
2013-4-6,57,45,32,23,17,14,66,44,22,30.27,30.10,29.81,10,10,10,17,9,25,0.00,3,,144
2013-4-7,62,53,43,43,37,23,61,44,27,30.02,29.84,29.68,10,10,8,31,15,39,T,3,,266
2013-4-8,72,56,39,53,42,32,79,63,47,30.04,29.89,29.74,10,9,6,31,12,40,0.03,4,Rain,153
2013-4-9,66,56,45,45,42,39,86,67,48,30.07,29.98,29.85,10,9,6,15,7,17,T,6,,72
2013-4-10,49,45,41,45,43,39,100,93,86,29.96,29.90,29.83,6,3,0,29,10,36,0.74,8,Rain-Thunderstorm,59
2013-4-11,42,40,37,39,37,34,92,89,85,29.97,29.83,29.60,10,8,2,31,17,40,1.16,8,Rain-Thunderstorm,79
2013-4-12,42,40,37,37,34,28,100,81,62,29.83,29.67,29.53,10,8,2,28,13,36,0.22,8,Rain,247
2013-4-13,42,39,36,36,31,26,85,70,55,30.02,29.90,29.82,10,10,3,26,13,32,0.03,8,Rain,247
2013-4-14,52,43,34,38,33,29,89,73,56,30.11,30.03,29.94,10,10,10,17,7,22,T,5,,94
2013-4-15,69,51,33,51,44,33,92,70,47,29.97,29.93,29.89,10,9,4,21,8,30,0.00,3,,176
2013-4-16,60,53,46,51,46,39,93,72,51,30.21,30.05,29.88,10,9,2,16,6,20,0.51,7,Rain-Thunderstorm,288
2013-4-17,53,49,44,41,33,30,77,61,44,30.31,30.21,30.05,10,10,4,24,15,32,0.06,7,Rain-Thunderstorm,64
2013-4-18,80,63,45,61,53,38,93,71,49,30.03,29.76,29.59,10,9,2,33,13,52,0.52,6,Rain-Thunderstorm,193
2013-4-19,61,49,37,57,37,27,96,75,53,29.83,29.59,29.37,10,9,2,38,19,47,0.14,8,Rain,243
2013-4-20,43,36,29,28,23,17,92,64,36,30.46,30.11,29.84,10,8,1,30,12,38,0.03,6,Snow,278
2013-4-21,48,37,25,29,24,19,81,62,42,30.62,30.54,30.48,10,10,10,16,7,25,0.00,0,,89
2013-4-22,62,46,30,34,29,24,85,56,27,30.46,30.32,30.19,10,10,9,16,6,22,0.00,0,,87
2013-4-23,72,55,38,54,42,30,93,61,29,30.17,29.99,29.81,10,8,2,23,8,33,0.34,4,Rain,182
2013-4-24,57,46,35,54,38,26,93,75,57,30.19,29.88,29.71,10,8,2,22,12,26,0.55,7,Rain,309
2013-4-25,51,42,33,37,29,24,76,56,36,30.38,30.22,30.16,10,10,7,25,11,32,0.02,2,Rain,244
2013-4-26,60,44,27,36,29,25,100,66,32,30.48,30.42,30.36,10,10,8,15,4,18,0.00,0,,179
2013-4-27,70,52,34,37,33,29,96,60,23,30.37,30.26,30.10,10,10,7,15,5,20,0.00,0,,118
2013-4-28,58,54,49,56,52,35,96,75,54,30.09,29.88,29.82,10,5,1,13,3,18,0.37,8,Rain,114
2013-4-29,70,62,54,55,53,48,100,74,47,29.95,29.91,29.84,10,7,2,14,5,17,T,7,Rain,242
2013-4-30,75,64,52,53,51,49,93,70,46,30.06,30.01,29.96,10,9,4,17,7,23,0.00,0,,164